タシュケント の空港の天気 - METARとTAF

タシケント空港 ( UTTT / TAS ) - ウズベキスタン タシュケント
飛行場実況気象(Metar)
観測時間10/23 18:00 UZT (10/23 13:00 UTC)
風向・風速南西 1m/s
視程3000m
天気現象
なし
気温17℃
湿度42%
気圧1016hPa
METARUTTT 231300Z 22002KT 3000 FU NSC 17/04 Q1016 WS R08R R08R/CLRD70 NOSIG
過去の天気等 Google飛行場航空写真 Wunderground天気予報

過去48時間のMETAR

飛行場予報(TAF)
発表時間: 10/23 16:00 UZT (10/23 11:00 UTC)
予報対象時間: 23日17時 UZT ~ 24日17時 UZT
風向・風速東 5m/s
視程7,000m
なし
23日19時 UZT ~ 24日5時 UZT に一時的に
視程2,000m
天気現象
24日5時 UZT ~ 24日15時 UZT に一時的に
少しの積乱雲 雲底高度 1,830m
全天の4割程度の雲 雲底高度 3,050m
TAF UTTT 231100Z 2312/2412 09010KT 7000 NSC
TEMPO 2314/2324 2000 FU
TEMPO 2400/2410 FEW060CB SCT100